createdAt,value
2018-02-22T00:00:34.107Z,-1.91
2018-02-22T00:03:02.432Z,-1.93
2018-02-22T00:05:30.753Z,-1.93
2018-02-22T00:07:59.409Z,-1.95
2018-02-22T00:10:27.768Z,-1.96
2018-02-22T00:12:56.143Z,-1.96
2018-02-22T00:15:24.490Z,-1.95
2018-02-22T00:17:52.786Z,-1.96
2018-02-22T00:20:21.231Z,-1.97
2018-02-22T00:22:49.664Z,-1.98
2018-02-22T00:25:18.092Z,-1.99
2018-02-22T00:27:47.244Z,-1.99
2018-02-22T00:30:15.628Z,-2.00
2018-02-22T00:32:43.941Z,-2.02
2018-02-22T00:35:13.864Z,-2.04
2018-02-22T00:37:42.209Z,-2.05
2018-02-22T00:40:10.585Z,-2.06
2018-02-22T00:42:38.966Z,-2.06
2018-02-22T00:45:09.162Z,-2.08
2018-02-22T00:47:39.218Z,-2.09
2018-02-22T00:50:07.507Z,-2.09
2018-02-22T00:52:35.880Z,-2.09
2018-02-22T00:55:04.210Z,-2.09
2018-02-22T00:57:32.539Z,-2.09
2018-02-22T01:00:00.955Z,-2.10
2018-02-22T01:02:29.293Z,-2.10
2018-02-22T01:05:00.234Z,-2.09
2018-02-22T01:07:28.612Z,-2.08
2018-02-22T01:09:56.925Z,-2.07
2018-02-22T01:12:25.320Z,-2.06
2018-02-22T01:14:53.726Z,-2.06
2018-02-22T01:17:22.328Z,-2.07
2018-02-22T01:19:50.743Z,-2.08
2018-02-22T01:22:22.682Z,-2.10
2018-02-22T01:24:51.090Z,-2.09
2018-02-22T01:27:19.378Z,-2.07
2018-02-22T01:29:47.952Z,-2.07
2018-02-22T01:32:16.331Z,-2.06
2018-02-22T01:34:46.500Z,-2.07
2018-02-22T01:37:16.462Z,-2.07
2018-02-22T01:39:44.886Z,-2.05
2018-02-22T01:42:13.235Z,-2.03
2018-02-22T01:44:41.552Z,-2.02
2018-02-22T01:47:09.917Z,-2.01
2018-02-22T01:49:38.245Z,-2.00
2018-02-22T01:52:06.654Z,-2.00
2018-02-22T01:54:34.942Z,-2.00
2018-02-22T01:57:03.588Z,-2.00
2018-02-22T01:59:31.953Z,-2.02
2018-02-22T02:02:00.990Z,-2.02
2018-02-22T02:04:30.996Z,-2.05
2018-02-22T02:06:59.487Z,-2.08
2018-02-22T02:09:27.796Z,-2.09
2018-02-22T02:11:56.110Z,-2.09
2018-02-22T02:14:24.495Z,-2.12
2018-02-22T02:16:52.824Z,-2.13
2018-02-22T02:19:21.177Z,-2.14
2018-02-22T02:21:49.496Z,-2.14
2018-02-22T02:24:17.831Z,-2.16
2018-02-22T02:26:46.162Z,-2.17
2018-02-22T02:29:14.594Z,-2.18
2018-02-22T02:31:43.702Z,-2.20
2018-02-22T02:34:13.082Z,-2.21
2018-02-22T02:36:43.114Z,-2.22
2018-02-22T02:39:11.461Z,-2.22
2018-02-22T02:41:41.775Z,-2.18
2018-02-22T02:44:12.497Z,-2.14
2018-02-22T02:46:40.852Z,-2.12
2018-02-22T02:49:09.220Z,-2.08
2018-02-22T02:51:37.523Z,-2.06
2018-02-22T02:54:05.873Z,-2.04
2018-02-22T02:56:34.159Z,-2.00
2018-02-22T02:59:02.480Z,-1.98
2018-02-22T03:01:30.781Z,-1.95
2018-02-22T03:03:59.142Z,-1.95
2018-02-22T03:06:27.452Z,-1.93
2018-02-22T03:08:55.855Z,-1.93
2018-02-22T03:11:24.182Z,-1.91
2018-02-22T03:13:54.973Z,-1.90
2018-02-22T03:16:25.751Z,-1.88
2018-02-22T03:18:54.131Z,-1.88
2018-02-22T03:21:22.434Z,-1.90
2018-02-22T03:23:50.822Z,-1.90
2018-02-22T03:26:19.142Z,-1.88
2018-02-22T03:28:47.531Z,-1.88
2018-02-22T03:31:15.822Z,-1.90
2018-02-22T03:33:44.140Z,-1.88
2018-02-22T03:36:12.465Z,-1.88
2018-02-22T03:38:40.851Z,-1.88
2018-02-22T03:41:09.267Z,-1.87
2018-02-22T03:43:37.585Z,-1.89
2018-02-22T03:46:06.060Z,-1.90
2018-02-22T03:48:34.342Z,-1.90
2018-02-22T03:51:02.775Z,-1.90
2018-02-22T03:53:31.083Z,-1.91
2018-02-22T03:55:59.408Z,-1.92
2018-02-22T03:58:27.734Z,-1.93
2018-02-22T04:00:57.978Z,-1.94
2018-02-22T04:03:29.701Z,-1.96
2018-02-22T04:05:58.037Z,-1.96
2018-02-22T04:08:26.326Z,-1.96
2018-02-22T04:10:54.651Z,-1.96
2018-02-22T04:13:24.693Z,-1.96
2018-02-22T04:15:55.199Z,-1.96
2018-02-22T04:18:25.721Z,-1.97
2018-02-22T04:20:54.100Z,-1.98
2018-02-22T04:23:22.469Z,-1.96
2018-02-22T04:25:52.527Z,-1.96
2018-02-22T04:28:20.996Z,-1.95
2018-02-22T04:30:52.036Z,-1.96
2018-02-22T04:33:20.525Z,-1.97
2018-02-22T04:35:48.862Z,-1.95
2018-02-22T04:38:19.459Z,-1.96
2018-02-22T04:40:48.009Z,-1.95
2018-02-22T04:43:18.577Z,-1.96
2018-02-22T04:45:49.353Z,-1.95
2018-02-22T04:48:18.098Z,-1.93
2018-02-22T04:50:46.583Z,-1.91
2018-02-22T04:53:15.031Z,-1.94
2018-02-22T04:55:43.539Z,-1.93
2018-02-22T04:58:11.897Z,-1.94
2018-02-22T05:00:40.166Z,-1.94
2018-02-22T05:03:08.644Z,-1.94
2018-02-22T05:05:36.958Z,-1.92
2018-02-22T05:08:07.011Z,-1.93
2018-02-22T05:10:35.634Z,-1.94
2018-02-22T05:13:04.010Z,-1.96
2018-02-22T05:15:32.480Z,-1.95
2018-02-22T05:18:01.724Z,-1.96
2018-02-22T05:20:30.078Z,-1.96
2018-02-22T05:22:59.488Z,-1.97
2018-02-22T05:25:27.909Z,-1.98
2018-02-22T05:27:58.314Z,-2.00
2018-02-22T05:30:26.714Z,-2.01
2018-02-22T05:32:56.692Z,-2.02
2018-02-22T05:35:26.988Z,-2.02
2018-02-22T05:37:56.296Z,-2.03
2018-02-22T05:40:24.605Z,-2.04
2018-02-22T05:42:52.910Z,-2.08
2018-02-22T05:45:22.280Z,-2.08
2018-02-22T05:47:50.678Z,-2.10
2018-02-22T05:50:20.794Z,-2.13
2018-02-22T05:52:49.175Z,-2.15
2018-02-22T05:55:17.527Z,-2.18
2018-02-22T05:57:45.807Z,-2.20
2018-02-22T06:00:14.215Z,-2.20
2018-02-22T06:02:43.240Z,-2.18
2018-02-22T06:05:13.372Z,-2.21
2018-02-22T06:07:42.497Z,-2.21
2018-02-22T06:10:13.577Z,-2.22
2018-02-22T06:12:41.890Z,-2.25
2018-02-22T06:15:10.362Z,-2.28
2018-02-22T06:17:38.950Z,-2.31
2018-02-22T06:20:07.262Z,-2.34
2018-02-22T06:22:35.604Z,-2.36
2018-02-22T06:25:03.904Z,-2.36
2018-02-22T06:27:32.433Z,-2.36
2018-02-22T06:30:00.737Z,-2.36
2018-02-22T06:32:29.752Z,-2.41
2018-02-22T06:34:58.144Z,-2.46
2018-02-22T06:37:26.626Z,-2.48
2018-02-22T06:39:54.993Z,-2.50
2018-02-22T06:42:23.282Z,-2.48
2018-02-22T06:44:54.764Z,-2.49
2018-02-22T06:47:27.744Z,-2.50
2018-02-22T06:49:56.193Z,-2.52
2018-02-22T06:52:24.535Z,-2.52
2018-02-22T06:54:52.819Z,-2.52
2018-02-22T06:57:21.166Z,-2.52
2018-02-22T06:59:49.533Z,-2.50
2018-02-22T07:02:17.920Z,-2.47
2018-02-22T07:04:46.355Z,-2.47
2018-02-22T07:07:14.708Z,-2.46
2018-02-22T07:09:43.052Z,-2.42
2018-02-22T07:12:11.680Z,-2.39
2018-02-22T07:14:39.976Z,-2.38
2018-02-22T07:17:09.960Z,-2.33
2018-02-22T07:19:38.324Z,-2.30
2018-02-22T07:22:06.774Z,-2.31
2018-02-22T07:24:39.035Z,-2.25
2018-02-22T07:27:08.608Z,-2.18
2018-02-22T07:29:38.022Z,-2.17
2018-02-22T07:32:08.080Z,-2.13
2018-02-22T07:34:36.528Z,-2.14
2018-02-22T07:37:04.982Z,-2.08
2018-02-22T07:39:33.296Z,-2.06
2018-02-22T07:42:01.637Z,-2.02
2018-02-22T07:44:30.084Z,-1.99
2018-02-22T07:46:58.494Z,-1.97
2018-02-22T07:49:28.826Z,-1.96
2018-02-22T07:52:00.439Z,-1.94
2018-02-22T07:54:28.757Z,-1.90
2018-02-22T07:56:57.230Z,-1.95
2018-02-22T07:59:25.678Z,-1.96
2018-02-22T08:01:57.814Z,-1.96
2018-02-22T08:04:26.313Z,-1.90
2018-02-22T08:06:54.706Z,-1.89
2018-02-22T08:09:23.090Z,-1.85
2018-02-22T08:11:51.435Z,-1.88
2018-02-22T08:14:19.922Z,-1.81
2018-02-22T08:16:48.250Z,-1.81
2018-02-22T08:19:16.557Z,-1.76
2018-02-22T08:21:44.909Z,-1.75
2018-02-22T08:24:13.207Z,-1.75
2018-02-22T08:26:41.601Z,-1.73
2018-02-22T08:29:09.909Z,-1.69
2018-02-22T08:31:38.260Z,-1.63
2018-02-22T08:34:08.336Z,-1.54
2018-02-22T08:36:36.711Z,-1.54
2018-02-22T08:39:05.038Z,-1.61
2018-02-22T08:41:33.338Z,-1.55
2018-02-22T08:44:02.397Z,-1.52
2018-02-22T08:46:30.741Z,-1.51
2018-02-22T08:48:59.071Z,-1.48
2018-02-22T08:51:28.657Z,-1.40
2018-02-22T08:53:57.816Z,-1.37
2018-02-22T08:56:27.152Z,-1.35
2018-02-22T08:58:55.456Z,-1.32
2018-02-22T09:01:25.020Z,-1.23
2018-02-22T09:03:53.488Z,-1.14
2018-02-22T09:06:21.898Z,-1.06
2018-02-22T09:08:51.072Z,-0.98
2018-02-22T09:11:19.394Z,-0.95
2018-02-22T09:13:49.399Z,-0.90
2018-02-22T09:16:17.824Z,-0.77
2018-02-22T09:18:46.171Z,-0.64
2018-02-22T09:21:14.495Z,-0.65
2018-02-22T09:23:44.695Z,-0.56
2018-02-22T09:26:14.670Z,-0.47
2018-02-22T09:28:46.025Z,-0.37
2018-02-22T09:31:17.096Z,-0.37
2018-02-22T09:33:45.647Z,-0.44
2018-02-22T09:36:14.124Z,-0.43
2018-02-22T09:38:42.605Z,-0.34
2018-02-22T09:41:10.985Z,-0.27
2018-02-22T09:46:09.672Z,-0.31
2018-02-22T09:48:37.995Z,-0.27
2018-02-22T09:51:06.380Z,-0.27
2018-02-22T09:53:36.297Z,-0.17
2018-02-22T09:56:04.731Z,-0.12
2018-02-22T09:58:33.041Z,-0.06
2018-02-22T10:01:01.385Z,0.03
2018-02-22T10:03:30.479Z,0.09
2018-02-22T10:05:59.609Z,0.16
2018-02-22T10:08:30.514Z,0.16
2018-02-22T10:10:58.968Z,0.23
2018-02-22T10:13:27.307Z,0.16
2018-02-22T10:15:55.667Z,0.20
2018-02-22T10:18:23.993Z,0.16
2018-02-22T10:20:53.075Z,0.08
2018-02-22T10:23:21.431Z,0.09
2018-02-22T10:25:52.694Z,0.13
2018-02-22T10:28:20.987Z,0.22
2018-02-22T10:30:49.334Z,0.14
2018-02-22T10:33:17.643Z,0.16
2018-02-22T10:35:46.077Z,0.20
2018-02-22T10:38:14.450Z,0.20
2018-02-22T10:40:42.882Z,0.16
2018-02-22T10:43:11.199Z,0.18
2018-02-22T10:45:39.565Z,0.28
2018-02-22T10:48:08.022Z,0.37
2018-02-22T10:50:36.371Z,0.24
2018-02-22T10:53:04.745Z,0.36
2018-02-22T10:55:33.201Z,0.33
2018-02-22T10:58:01.562Z,0.39
2018-02-22T11:00:35.433Z,0.38
2018-02-22T11:03:03.857Z,0.38
2018-02-22T11:05:32.948Z,0.51
2018-02-22T11:08:03.013Z,0.49
2018-02-22T11:10:31.504Z,0.57
2018-02-22T11:12:59.823Z,0.58
2018-02-22T11:15:28.272Z,0.61
2018-02-22T11:17:58.291Z,0.62
2018-02-22T11:20:28.355Z,0.60
2018-02-22T11:22:57.464Z,0.69
2018-02-22T11:25:25.763Z,0.66
2018-02-22T11:27:54.121Z,0.75
2018-02-22T11:30:22.474Z,0.91
2018-02-22T11:32:50.950Z,1.03
2018-02-22T11:35:19.332Z,0.95
2018-02-22T11:37:47.704Z,0.88
2018-02-22T11:40:16.051Z,0.73
2018-02-22T11:42:45.253Z,0.70
2018-02-22T11:45:13.664Z,0.66
2018-02-22T11:47:42.152Z,0.61
2018-02-22T11:50:12.156Z,0.52
2018-02-22T11:52:41.215Z,0.65
2018-02-22T11:55:09.626Z,0.81
2018-02-22T11:57:37.910Z,0.86
2018-02-22T12:00:06.227Z,0.85
2018-02-22T12:02:34.526Z,0.71
2018-02-22T12:05:02.797Z,0.76
2018-02-22T12:07:33.669Z,0.80
2018-02-22T12:10:02.090Z,0.76
2018-02-22T12:12:30.807Z,0.75
2018-02-22T12:15:02.274Z,0.94
2018-02-22T12:17:32.347Z,0.97
2018-02-22T12:20:00.828Z,1.15
2018-02-22T12:22:32.215Z,1.36
2018-02-22T12:25:00.542Z,1.47
2018-02-22T12:27:29.739Z,1.44
2018-02-22T12:29:58.129Z,1.35
2018-02-22T12:32:26.492Z,1.46
2018-02-22T12:34:54.872Z,1.52
2018-02-22T12:37:23.208Z,1.32
2018-02-22T12:39:51.593Z,1.26
2018-02-22T12:42:20.639Z,1.38
2018-02-22T12:44:48.925Z,1.40
2018-02-22T12:47:17.301Z,1.44
2018-02-22T12:49:45.620Z,1.44
2018-02-22T12:52:13.980Z,1.50
2018-02-22T12:54:42.360Z,1.51
2018-02-22T12:57:10.774Z,1.50
2018-02-22T12:59:41.777Z,1.47
2018-02-22T13:02:10.130Z,1.53
2018-02-22T13:04:40.116Z,1.62
2018-02-22T13:07:11.494Z,1.56
2018-02-22T13:09:39.992Z,1.46
2018-02-22T13:12:08.424Z,1.47
2018-02-22T13:14:38.354Z,1.48
2018-02-22T13:17:06.852Z,1.42
2018-02-22T13:19:35.205Z,1.34
2018-02-22T13:22:03.641Z,1.28
2018-02-22T13:24:32.059Z,1.38
2018-02-22T13:27:02.202Z,1.54
2018-02-22T13:29:35.879Z,1.52
2018-02-22T13:32:04.273Z,1.55
2018-02-22T13:34:35.482Z,1.46
2018-02-22T13:37:15.378Z,1.57
2018-02-22T13:39:43.868Z,1.59
2018-02-22T13:42:12.224Z,1.51
2018-02-22T13:44:52.502Z,1.52
2018-02-22T13:47:21.622Z,1.62
2018-02-22T13:50:03.940Z,1.60
2018-02-22T13:52:32.287Z,1.45
2018-02-22T13:55:05.265Z,1.50
2018-02-22T13:57:33.804Z,1.49
2018-02-22T14:00:03.013Z,1.52
2018-02-22T14:02:31.361Z,1.53
2018-02-22T14:04:59.738Z,1.47
2018-02-22T14:07:28.055Z,1.45
2018-02-22T14:09:56.524Z,1.49
2018-02-22T14:12:24.836Z,1.56
2018-02-22T14:14:53.180Z,1.55
2018-02-22T14:17:23.261Z,1.42
2018-02-22T14:19:51.678Z,1.46
2018-02-22T14:22:20.024Z,1.45
2018-02-22T14:24:49.107Z,1.50
2018-02-22T14:27:17.482Z,1.53
2018-02-22T14:29:45.768Z,1.57
2018-02-22T14:32:14.103Z,1.51
2018-02-22T14:34:44.978Z,1.51
2018-02-22T14:37:14.178Z,1.46
2018-02-22T14:39:42.558Z,1.48
2018-02-22T14:42:10.881Z,1.39
2018-02-22T14:44:39.244Z,1.39
2018-02-22T14:47:07.528Z,1.38
2018-02-22T14:49:35.868Z,1.34
2018-02-22T14:52:06.811Z,1.34
2018-02-22T14:54:35.224Z,1.34
2018-02-22T14:57:05.410Z,1.29
2018-02-22T14:59:33.923Z,1.20
2018-02-22T15:02:02.310Z,1.12
2018-02-22T15:04:30.755Z,1.14
2018-02-22T15:06:59.085Z,1.01
2018-02-22T15:09:29.253Z,1.05
2018-02-22T15:12:00.246Z,1.06
2018-02-22T15:14:30.619Z,0.96
2018-02-22T15:17:01.523Z,1.02
2018-02-22T15:19:29.987Z,0.99
2018-02-22T15:22:01.715Z,0.87
2018-02-22T15:24:30.225Z,0.87
2018-02-22T15:26:58.637Z,0.87
2018-02-22T15:29:26.997Z,0.81
2018-02-22T15:32:00.222Z,0.81
2018-02-22T15:34:30.491Z,0.76
2018-02-22T15:37:01.539Z,0.68
2018-02-22T15:39:30.339Z,0.68
2018-02-22T15:41:59.791Z,0.69
2018-02-22T15:44:28.150Z,0.71
2018-02-22T15:46:57.407Z,0.67
2018-02-22T15:49:25.869Z,0.67
2018-02-22T15:51:56.861Z,0.64
2018-02-22T15:54:27.912Z,0.57
2018-02-22T15:56:58.133Z,0.57
2018-02-22T15:59:26.521Z,0.48
2018-02-22T16:01:57.339Z,0.40
2018-02-22T16:04:26.589Z,0.35
2018-02-22T16:06:55.125Z,0.36
2018-02-22T16:09:26.087Z,0.32
2018-02-22T16:11:54.525Z,0.28
2018-02-22T16:14:22.939Z,0.27
2018-02-22T16:16:52.486Z,0.19
2018-02-22T16:19:20.801Z,0.08
2018-02-22T16:21:49.176Z,0.05
2018-02-22T16:24:19.265Z,0.06
2018-02-22T16:26:47.695Z,0.00
2018-02-22T16:29:18.806Z,-0.04
2018-02-22T16:31:47.191Z,-0.10
2018-02-22T16:34:16.509Z,-0.17
2018-02-22T16:36:44.961Z,-0.20
2018-02-22T16:39:14.342Z,-0.19
2018-02-22T16:41:42.768Z,-0.21
2018-02-22T16:44:11.142Z,-0.24
2018-02-22T16:46:39.540Z,-0.28
2018-02-22T16:49:07.991Z,-0.33
2018-02-22T16:51:38.224Z,-0.34
2018-02-22T16:54:08.935Z,-0.38
2018-02-22T16:56:37.265Z,-0.42
2018-02-22T16:59:05.833Z,-0.47
2018-02-22T17:01:34.166Z,-0.48
2018-02-22T17:04:02.517Z,-0.55
2018-02-22T17:06:30.864Z,-0.62
2018-02-22T17:08:59.376Z,-0.64
2018-02-22T17:11:27.766Z,-0.67
2018-02-22T17:13:56.192Z,-0.67
2018-02-22T17:16:24.585Z,-0.69
2018-02-22T17:18:52.866Z,-0.69
2018-02-22T17:21:21.213Z,-0.70
2018-02-22T17:23:49.606Z,-0.74
2018-02-22T17:26:23.496Z,-0.78
2018-02-22T17:28:57.341Z,-0.82
2018-02-22T17:31:31.550Z,-0.86
2018-02-22T17:33:59.934Z,-0.87
2018-02-22T17:36:28.297Z,-0.85
2018-02-22T17:39:02.253Z,-0.92
2018-02-22T17:41:41.594Z,-0.92
2018-02-22T17:44:09.996Z,-0.97
2018-02-22T17:46:38.516Z,-1.02
2018-02-22T17:49:07.001Z,-1.07
2018-02-22T17:51:35.362Z,-1.08
2018-02-22T17:54:05.347Z,-1.15
2018-02-22T17:56:36.464Z,-1.17
2018-02-22T17:59:05.561Z,-1.18
2018-02-22T18:01:33.874Z,-1.19
2018-02-22T18:04:04.083Z,-1.24
2018-02-22T18:06:32.467Z,-1.26
2018-02-22T18:09:00.865Z,-1.28
2018-02-22T18:11:29.270Z,-1.32
2018-02-22T18:13:57.630Z,-1.30
2018-02-22T18:16:25.971Z,-1.33
2018-02-22T18:18:54.288Z,-1.33
2018-02-22T18:21:24.390Z,-1.30
2018-02-22T18:23:54.115Z,-1.31
2018-02-22T18:26:22.538Z,-1.31
2018-02-22T18:28:50.950Z,-1.32
2018-02-22T18:31:19.657Z,-1.31
2018-02-22T18:33:50.149Z,-1.30
2018-02-22T18:36:19.228Z,-1.34
2018-02-22T18:38:53.105Z,-1.38
2018-02-22T18:41:23.679Z,-1.39
2018-02-22T18:46:56.983Z,-1.39
2018-02-22T18:49:26.377Z,-1.43
2018-02-22T18:51:54.780Z,-1.45
2018-02-22T18:54:25.774Z,-1.47
2018-02-22T18:56:56.198Z,-1.47
2018-02-22T18:59:25.323Z,-1.46
2018-02-22T19:01:53.647Z,-1.46
2018-02-22T19:04:22.093Z,-1.50
2018-02-22T19:06:50.620Z,-1.54
2018-02-22T19:09:19.158Z,-1.55
2018-02-22T19:11:50.679Z,-1.55
2018-02-22T19:14:19.212Z,-1.58
2018-02-22T19:16:47.596Z,-1.57
2018-02-22T19:19:17.770Z,-1.57
2018-02-22T19:24:42.487Z,-1.57
2018-02-22T19:27:13.004Z,-1.54
2018-02-22T19:29:43.580Z,-1.54
2018-02-22T19:32:11.927Z,-1.56
2018-02-22T19:34:42.008Z,-1.63
2018-02-22T19:40:13.538Z,-1.63
2018-02-22T19:42:42.157Z,-1.65
2018-02-22T19:45:10.540Z,-1.71
2018-02-22T19:47:39.084Z,-1.70
2018-02-22T19:50:07.451Z,-1.72
2018-02-22T19:52:36.063Z,-1.71
2018-02-22T19:55:05.386Z,-1.74
2018-02-22T19:57:33.916Z,-1.76
2018-02-22T20:00:03.757Z,-1.76
2018-02-22T20:02:32.241Z,-1.74
2018-02-22T20:05:01.751Z,-1.74
2018-02-22T20:07:30.357Z,-1.77
2018-02-22T20:10:01.692Z,-1.77
2018-02-22T20:12:30.310Z,-1.81
2018-02-22T20:15:00.666Z,-1.83
2018-02-22T20:17:32.468Z,-1.87
2018-02-22T20:20:03.625Z,-1.86
2018-02-22T20:22:32.277Z,-1.89
2018-02-22T20:25:02.897Z,-1.93
2018-02-22T20:27:33.012Z,-1.93
2018-02-22T20:30:02.912Z,-1.93
2018-02-22T20:32:31.436Z,-1.93
2018-02-22T20:34:59.813Z,-1.94
2018-02-22T20:37:28.265Z,-1.96
2018-02-22T20:39:58.517Z,-1.98
2018-02-22T20:42:29.249Z,-2.00
2018-02-22T20:44:59.540Z,-2.02
2018-02-22T20:47:28.937Z,-2.03
2018-02-22T20:49:58.136Z,-2.02
2018-02-22T20:55:44.671Z,-2.01
2018-02-22T20:58:15.614Z,-2.03
2018-02-22T21:00:44.074Z,-2.04
2018-02-22T21:03:13.130Z,-2.04
2018-02-22T21:05:41.576Z,-2.05
2018-02-22T21:08:09.874Z,-2.09
2018-02-22T21:10:38.272Z,-2.07
2018-02-22T21:13:06.628Z,-2.10
2018-02-22T21:15:35.062Z,-2.13
2018-02-22T21:18:05.269Z,-2.15
2018-02-22T21:20:33.629Z,-2.18
2018-02-22T21:23:01.932Z,-2.22
2018-02-22T21:25:30.271Z,-2.22
2018-02-22T21:27:58.803Z,-2.24
2018-02-22T21:30:27.284Z,-2.26
2018-02-22T21:32:55.645Z,-2.26
2018-02-22T21:35:24.003Z,-2.26
2018-02-22T21:37:52.513Z,-2.26
2018-02-22T21:40:22.626Z,-2.28
2018-02-22T21:42:51.001Z,-2.29
2018-02-22T21:45:21.031Z,-2.29
2018-02-22T21:47:49.420Z,-2.26
2018-02-22T21:50:19.587Z,-2.23
2018-02-22T21:52:49.588Z,-2.20
2018-02-22T21:55:18.115Z,-2.16
2018-02-22T21:57:46.555Z,-2.14
2018-02-22T22:00:15.009Z,-2.12
2018-02-22T22:02:43.457Z,-2.08
2018-02-22T22:05:11.989Z,-2.05
2018-02-22T22:07:40.436Z,-2.05
2018-02-22T22:10:08.826Z,-2.04
2018-02-22T22:12:37.279Z,-2.02
2018-02-22T22:15:06.604Z,-2.01
2018-02-22T22:17:35.086Z,-2.01
2018-02-22T22:20:05.041Z,-1.97
2018-02-22T22:22:36.988Z,-1.97
2018-02-22T22:25:05.381Z,-1.96
2018-02-22T22:27:33.778Z,-1.95
2018-02-22T22:30:02.192Z,-1.94
2018-02-22T22:32:31.344Z,-1.95
2018-02-22T22:35:00.728Z,-1.94
2018-02-22T22:37:30.154Z,-1.93
2018-02-22T22:39:58.943Z,-1.93
2018-02-22T22:42:27.276Z,-1.92
2018-02-22T22:44:55.752Z,-1.89
2018-02-22T22:47:24.803Z,-1.89
2018-02-22T22:49:53.917Z,-1.89
2018-02-22T22:52:22.267Z,-1.86
2018-02-22T22:54:50.597Z,-1.85
2018-02-22T22:57:19.105Z,-1.84
2018-02-22T22:59:47.504Z,-1.84
2018-02-22T23:02:15.899Z,-1.83
2018-02-22T23:04:46.001Z,-1.84
2018-02-22T23:07:14.330Z,-1.81
2018-02-22T23:09:42.683Z,-1.80
2018-02-22T23:12:11.290Z,-1.79
2018-02-22T23:14:39.618Z,-1.79
2018-02-22T23:17:07.922Z,-1.79
2018-02-22T23:19:36.272Z,-1.76
2018-02-22T23:22:04.635Z,-1.75
2018-02-22T23:24:32.999Z,-1.74
2018-02-22T23:27:02.088Z,-1.74
2018-02-22T23:29:31.298Z,-1.75
2018-02-22T23:31:59.687Z,-1.77
2018-02-22T23:34:30.623Z,-1.77
2018-02-22T23:36:58.965Z,-1.77
2018-02-22T23:39:27.326Z,-1.76
2018-02-22T23:42:01.385Z,-1.80
2018-02-22T23:44:33.654Z,-1.82
2018-02-22T23:47:02.144Z,-1.85
2018-02-22T23:49:30.525Z,-1.87
2018-02-22T23:52:00.743Z,-1.87
2018-02-22T23:54:31.378Z,-1.89
2018-02-22T23:56:59.702Z,-1.90
2018-02-22T23:59:28.011Z,-1.93
